createdAt,value
2023-01-03T00:01:22.173Z,69.07
2023-01-03T00:05:38.558Z,72.23
2023-01-03T00:09:54.919Z,69.99
2023-01-03T00:14:14.116Z,69.50
2023-01-03T00:18:30.472Z,70.11
2023-01-03T00:22:46.758Z,68.88
2023-01-03T00:27:03.626Z,68.97
2023-01-03T00:31:20.096Z,68.78
2023-01-03T00:35:36.464Z,69.10
2023-01-03T00:39:52.755Z,69.03
2023-01-03T00:44:09.473Z,69.60
2023-01-03T00:48:26.146Z,68.64
2023-01-03T00:52:42.516Z,68.42
2023-01-03T00:56:59.042Z,68.23
2023-01-03T01:01:21.970Z,68.58
2023-01-03T01:05:38.548Z,68.43
2023-01-03T01:09:54.900Z,68.52
2023-01-03T01:14:21.207Z,68.51
2023-01-03T01:18:38.778Z,68.01
2023-01-03T01:22:55.029Z,68.18
2023-01-03T01:27:14.461Z,68.40
2023-01-03T01:31:31.384Z,68.87
2023-01-03T01:35:47.687Z,68.82
2023-01-03T01:40:04.172Z,68.52
2023-01-03T01:44:45.190Z,68.11
2023-01-03T01:49:04.068Z,68.82
2023-01-03T01:53:35.038Z,68.57
2023-01-03T01:57:51.974Z,68.98
2023-01-03T02:02:10.295Z,69.17
2023-01-03T02:06:27.058Z,68.51
2023-01-03T02:11:07.521Z,67.81
2023-01-03T02:15:35.583Z,68.80
2023-01-03T02:20:17.339Z,68.43
2023-01-03T02:25:13.335Z,68.58
2023-01-03T02:29:50.845Z,69.59
2023-01-03T02:34:07.170Z,69.04
2023-01-03T02:38:41.188Z,69.97
2023-01-03T02:43:06.263Z,69.22
2023-01-03T02:47:25.589Z,70.71
2023-01-03T02:51:51.185Z,71.10
2023-01-03T02:56:12.018Z,70.74
2023-01-03T03:00:30.889Z,70.71
2023-01-03T03:04:49.512Z,70.02
2023-01-03T03:09:05.776Z,69.96
2023-01-03T03:13:53.215Z,70.50
2023-01-03T03:18:20.775Z,70.26
2023-01-03T03:23:13.822Z,70.75
2023-01-03T03:27:51.194Z,70.30
2023-01-03T03:32:07.467Z,69.59
2023-01-03T03:36:33.452Z,69.74
2023-01-03T03:41:37.020Z,69.20
2023-01-03T03:46:07.724Z,69.26
2023-01-03T03:50:46.765Z,69.11
2023-01-03T03:55:11.212Z,68.62
2023-01-03T03:59:28.254Z,68.70
2023-01-03T04:03:46.101Z,68.65
2023-01-03T04:08:02.618Z,69.24
2023-01-03T04:12:18.897Z,67.99
2023-01-03T04:16:35.523Z,68.42
2023-01-03T04:20:51.892Z,68.42
2023-01-03T04:25:08.717Z,67.99
2023-01-03T04:29:24.999Z,68.09
2023-01-03T04:33:41.797Z,68.29
2023-01-03T04:37:58.348Z,68.36
2023-01-03T04:42:33.199Z,68.43
2023-01-03T04:46:53.072Z,68.31
2023-01-03T04:51:09.731Z,68.42
2023-01-03T04:55:26.156Z,67.87
2023-01-03T04:59:42.513Z,68.75
2023-01-03T05:04:00.753Z,68.20
2023-01-03T05:08:17.185Z,68.33
2023-01-03T05:12:33.439Z,68.74
2023-01-03T05:16:49.749Z,68.37
2023-01-03T05:21:35.573Z,68.20
2023-01-03T05:25:52.436Z,68.30
2023-01-03T05:30:09.024Z,68.67
2023-01-03T05:34:25.435Z,68.63
2023-01-03T05:38:41.763Z,68.89
2023-01-03T05:42:57.981Z,69.36
2023-01-03T05:47:14.227Z,69.10
2023-01-03T05:51:30.439Z,69.09
2023-01-03T05:55:46.655Z,69.96
2023-01-03T06:00:04.072Z,71.37
2023-01-03T06:04:20.594Z,71.41
2023-01-03T06:08:37.364Z,75.25
2023-01-03T06:12:53.565Z,75.96
2023-01-03T06:17:28.700Z,74.32
2023-01-03T06:21:45.029Z,76.22
2023-01-03T06:26:04.419Z,75.01
2023-01-03T06:30:21.142Z,75.20
2023-01-03T06:34:37.659Z,73.97
2023-01-03T06:38:54.766Z,74.35
2023-01-03T06:43:11.091Z,72.71
2023-01-03T06:47:45.995Z,71.96
2023-01-03T06:52:22.597Z,72.68
2023-01-03T06:56:38.879Z,73.18
2023-01-03T07:00:56.345Z,72.92
2023-01-03T07:05:15.548Z,73.14
2023-01-03T07:09:31.854Z,71.45
2023-01-03T07:14:00.330Z,70.83
2023-01-03T07:18:16.615Z,72.40
2023-01-03T07:22:33.033Z,71.33
2023-01-03T07:26:49.289Z,72.74
2023-01-03T07:31:07.317Z,70.58
2023-01-03T07:35:26.676Z,71.25
2023-01-03T07:39:42.920Z,73.24
2023-01-03T07:43:59.196Z,70.98
2023-01-03T07:48:16.073Z,71.51
2023-01-03T07:52:32.243Z,73.65
2023-01-03T07:56:48.543Z,75.20
2023-01-03T08:01:13.090Z,72.17
2023-01-03T08:05:29.487Z,71.33
2023-01-03T08:10:06.371Z,70.46
2023-01-03T08:14:26.129Z,70.28
2023-01-03T08:18:47.106Z,70.28
2023-01-03T08:23:03.368Z,70.38
2023-01-03T08:27:19.662Z,70.28
2023-01-03T08:31:40.920Z,69.84
2023-01-03T08:36:03.662Z,69.65
2023-01-03T08:40:20.062Z,70.56
2023-01-03T08:44:37.233Z,70.27
2023-01-03T08:48:54.601Z,70.48
2023-01-03T08:53:11.187Z,71.79
2023-01-03T08:57:27.361Z,71.13
2023-01-03T09:01:43.779Z,71.46
2023-01-03T09:06:03.974Z,70.92
2023-01-03T09:10:20.309Z,70.67
2023-01-03T09:14:36.587Z,71.70
2023-01-03T09:18:52.817Z,70.82
2023-01-03T09:23:09.181Z,70.66
2023-01-03T09:27:25.546Z,70.78
2023-01-03T09:31:41.892Z,69.17
2023-01-03T09:35:58.246Z,69.86
2023-01-03T09:40:14.838Z,70.16
2023-01-03T09:44:31.007Z,69.70
2023-01-03T09:48:49.206Z,70.25
2023-01-03T09:53:24.488Z,71.34
2023-01-03T09:57:59.641Z,70.00
2023-01-03T10:02:59.468Z,70.04
2023-01-03T10:07:31.901Z,70.36
2023-01-03T10:12:11.987Z,71.03
2023-01-03T10:16:56.380Z,71.38
2023-01-03T10:21:43.473Z,70.94
2023-01-03T10:25:59.853Z,70.78
2023-01-03T10:30:27.743Z,70.25
2023-01-03T10:34:44.088Z,69.83
2023-01-03T10:39:11.085Z,69.31
2023-01-03T10:43:41.536Z,69.55
2023-01-03T10:48:01.942Z,68.75
2023-01-03T10:52:23.123Z,69.16
2023-01-03T10:56:40.163Z,69.52
2023-01-03T11:01:31.140Z,68.77
2023-01-03T11:06:15.210Z,67.88
2023-01-03T11:10:54.931Z,67.96
2023-01-03T11:15:18.924Z,68.29
2023-01-03T11:19:35.651Z,68.55
2023-01-03T11:23:54.824Z,67.62
2023-01-03T11:28:39.181Z,67.44
2023-01-03T11:33:04.513Z,67.88
2023-01-03T11:37:37.400Z,67.66
2023-01-03T11:42:30.239Z,68.20
2023-01-03T11:46:49.579Z,68.67
2023-01-03T11:51:19.683Z,68.23
2023-01-03T11:56:11.523Z,67.63
2023-01-03T12:00:40.383Z,67.68
2023-01-03T12:05:21.381Z,68.34
2023-01-03T12:09:55.214Z,67.48
2023-01-03T12:14:38.095Z,67.45
2023-01-03T12:19:12.753Z,67.12
2023-01-03T12:23:40.083Z,67.33
2023-01-03T12:28:23.261Z,64.99
2023-01-03T12:33:10.495Z,66.57
2023-01-03T12:37:30.922Z,66.32
2023-01-03T12:42:07.034Z,67.55
2023-01-03T12:46:37.515Z,67.27
2023-01-03T12:50:56.711Z,68.40
2023-01-03T12:55:20.357Z,69.15
2023-01-03T12:59:59.491Z,68.53
2023-01-03T13:04:29.477Z,67.41
2023-01-03T13:08:52.187Z,67.45
2023-01-03T13:13:13.834Z,67.43
2023-01-03T13:17:32.416Z,67.47
2023-01-03T13:21:54.838Z,67.09
2023-01-03T13:26:22.368Z,68.00
2023-01-03T13:30:38.933Z,64.94
2023-01-03T13:34:55.118Z,64.99
2023-01-03T13:39:48.455Z,63.19
2023-01-03T13:44:24.593Z,63.72
2023-01-03T13:48:51.047Z,62.08
2023-01-03T13:53:31.222Z,60.97
2023-01-03T13:57:54.399Z,61.69
2023-01-03T14:02:10.885Z,61.01
2023-01-03T14:07:03.647Z,59.57
2023-01-03T14:11:41.458Z,61.00
2023-01-03T14:16:21.752Z,62.94
2023-01-03T14:20:39.902Z,64.06
2023-01-03T14:24:57.713Z,63.92
2023-01-03T14:29:20.969Z,64.42
2023-01-03T14:33:41.651Z,64.39
2023-01-03T14:38:00.696Z,64.29
2023-01-03T14:42:21.207Z,64.05
2023-01-03T14:46:38.439Z,63.38
2023-01-03T14:50:55.461Z,64.81
2023-01-03T14:55:20.815Z,64.50
2023-01-03T14:59:38.061Z,64.70
2023-01-03T15:03:55.878Z,64.36
2023-01-03T15:08:20.784Z,64.35
2023-01-03T15:12:39.880Z,63.66
2023-01-03T15:17:12.233Z,64.82
2023-01-03T15:21:29.576Z,64.07
2023-01-03T15:25:45.772Z,64.19
2023-01-03T15:30:23.510Z,63.87
2023-01-03T15:34:43.591Z,63.22
2023-01-03T15:39:02.065Z,64.79
2023-01-03T15:43:20.227Z,64.23
2023-01-03T15:47:36.615Z,63.73
2023-01-03T15:51:52.979Z,64.82
2023-01-03T15:56:18.838Z,63.58
2023-01-03T16:00:35.236Z,63.34
2023-01-03T16:04:54.430Z,64.26
2023-01-03T16:09:12.230Z,64.30
2023-01-03T16:13:38.991Z,63.36
2023-01-03T16:17:55.221Z,63.87
2023-01-03T16:26:49.405Z,64.48
2023-01-03T16:31:14.900Z,63.82
2023-01-03T16:35:31.097Z,63.75
2023-01-03T16:39:48.546Z,65.10
2023-01-03T16:44:05.320Z,64.86
2023-01-03T16:48:24.402Z,64.90
2023-01-03T16:52:43.641Z,64.75
2023-01-03T16:57:00.459Z,65.06
2023-01-03T17:01:16.878Z,65.33
2023-01-03T17:05:36.366Z,65.37
2023-01-03T17:09:52.781Z,65.53
2023-01-03T17:14:15.827Z,65.79
2023-01-03T17:18:37.877Z,65.78
2023-01-03T17:23:00.908Z,65.81
2023-01-03T17:27:32.368Z,65.06
2023-01-03T17:31:49.736Z,65.41
2023-01-03T17:36:08.941Z,65.35
2023-01-03T17:40:33.178Z,65.23
2023-01-03T17:45:09.331Z,65.70
2023-01-03T17:49:25.551Z,65.61
2023-01-03T17:53:42.364Z,65.95
2023-01-03T17:58:01.791Z,65.84
2023-01-03T18:02:20.600Z,65.92
2023-01-03T18:06:38.681Z,66.30
2023-01-03T18:10:55.947Z,66.25
2023-01-03T18:15:20.020Z,66.16
2023-01-03T18:19:36.270Z,65.84
2023-01-03T18:24:01.653Z,66.27
2023-01-03T18:28:20.769Z,66.16
2023-01-03T18:32:36.990Z,65.92
2023-01-03T18:36:53.759Z,66.19
2023-01-03T18:41:25.269Z,66.04
2023-01-03T18:45:44.955Z,65.69
2023-01-03T18:50:01.272Z,66.18
2023-01-03T18:54:21.250Z,66.34
2023-01-03T18:58:41.181Z,66.14
2023-01-03T19:02:57.587Z,66.17
2023-01-03T19:07:28.221Z,66.15
2023-01-03T19:11:46.095Z,66.44
2023-01-03T19:16:04.450Z,66.17
2023-01-03T19:20:26.492Z,66.79
2023-01-03T19:24:43.380Z,66.68
2023-01-03T19:29:02.952Z,67.27
2023-01-03T19:33:21.976Z,66.86
2023-01-03T19:37:38.175Z,66.82
2023-01-03T19:42:18.547Z,66.80
2023-01-03T19:46:34.741Z,67.59
2023-01-03T19:50:53.345Z,67.24
2023-01-03T19:55:11.217Z,68.85
2023-01-03T19:59:36.713Z,67.11
2023-01-03T20:03:55.980Z,67.27
2023-01-03T20:08:12.930Z,66.97
2023-01-03T20:12:29.157Z,67.15
2023-01-03T20:16:46.078Z,66.77
2023-01-03T20:21:15.270Z,66.21
2023-01-03T20:25:37.767Z,66.65
2023-01-03T20:29:57.376Z,66.84
2023-01-03T20:34:13.995Z,67.28
2023-01-03T20:38:35.667Z,67.31
2023-01-03T20:42:54.141Z,68.25
2023-01-03T20:47:13.774Z,67.97
2023-01-03T20:51:30.168Z,66.81
2023-01-03T20:55:47.482Z,66.46
2023-01-03T21:00:04.060Z,66.43
2023-01-03T21:04:20.659Z,66.16
2023-01-03T21:08:55.466Z,66.53
2023-01-03T21:13:12.168Z,66.08
2023-01-03T21:17:28.587Z,66.49
2023-01-03T21:21:48.021Z,66.43
2023-01-03T21:26:04.376Z,66.30
2023-01-03T21:30:22.208Z,66.41
2023-01-03T21:34:38.601Z,66.01
2023-01-03T21:38:55.373Z,66.37
2023-01-03T21:43:11.989Z,64.89
2023-01-03T21:47:28.248Z,64.72
2023-01-03T21:51:44.608Z,65.40
2023-01-03T21:56:00.760Z,65.26
2023-01-03T22:00:18.080Z,65.97
2023-01-03T22:04:34.883Z,66.04
2023-01-03T22:08:51.533Z,64.80
2023-01-03T22:13:08.973Z,64.60
2023-01-03T22:17:25.198Z,65.74
2023-01-03T22:21:41.369Z,65.74
2023-01-03T22:26:07.959Z,65.65
2023-01-03T22:30:24.491Z,65.45
2023-01-03T22:34:40.771Z,65.25
2023-01-03T22:38:56.988Z,65.09
2023-01-03T22:43:13.299Z,65.19
2023-01-03T22:47:29.669Z,64.45
2023-01-03T22:51:45.911Z,64.12
2023-01-03T22:56:06.074Z,63.98
2023-01-03T23:00:22.401Z,64.16
2023-01-03T23:04:38.804Z,64.05
2023-01-03T23:08:55.909Z,63.47
2023-01-03T23:13:12.109Z,63.90
2023-01-03T23:17:46.788Z,62.17
2023-01-03T23:22:02.971Z,62.51
2023-01-03T23:26:19.468Z,61.65
2023-01-03T23:30:36.346Z,61.46
2023-01-03T23:34:55.526Z,62.48
2023-01-03T23:39:18.483Z,61.99
2023-01-03T23:43:35.184Z,62.29
2023-01-03T23:47:52.041Z,60.94
2023-01-03T23:52:08.820Z,61.53
2023-01-03T23:56:25.462Z,60.03
